Главная страница
METAR-TAF:

METAR-TAF

Аэропорты :

Пашковский

Краснодар, Россия

широта: 45-02N, долгота: 039-09E, высота над уровнем моря: 33 м

Текущие метеонаблюдения

Эта сводка был подготовлена 34 минут назад, в 22:00 UTC
Ветер 12 Узел от восточно-северо-восточный
Температура 27°C
Влажность 28%
Давление 1009 hPa
Видимость 10 км и более
Нет облачности ниже 1500 м, и нет кучево-дождевой облачности

METAR: URKK 172200Z 06006MPS CAVOK 27/07 Q1009 R05R/CLRD70 NOSIG RMK QFE753

Время: 01:34 (22:34 UTC)

Прогноз

Эта сводка был подготовлена 2 часа и 38 минут назад, в 19:56 UTC
Прогноз действительный с 17-го 21 UTC до 18-го 21 UTC
Ветер 10 Узел от северо-восточный с порывами до 25 Узел
Видимость 10 км и более
Нет облачности ниже 1500 м, и нет кучево-дождевой облачности
изменения
С 18-го 06 UTC до 18-го 08 UTC
Ветер 17 Узел от восточный с порывами до 31 Узел

TAF: URKK 171956Z 1721/1821 04005G13MPS CAVOK BECMG 1806/1808 08009G16MPS

Метеонаблюдения и прогнозы для более 4000 аэропортов (сводки METAR и TAF).

Имеющиеся станции представлены на карте желтыми и красными точками.

Чтобы увидеть название станции, наведите на нее мышь.

Затем щелкните, чтобы увидеть метеонаблюдения и метеопрогнозы.

Управление картой: чтобы увеличить масштаб, щелкните зеленые кнопки с черным крестиком; чтобы уменьшить масштаб, щелкните зеленую кнопку с тире; для просмотра соседних карт щелкайте зеленые стрелки.


METAR-TAF: